sensor_id;sensor_type;location;lat;lon;timestamp;P1;durP1;ratioP1;P2;durP2;ratioP2
19804;SDS011;10062;51.052;13.756;2023-04-25T00:01:29;5.50;;;2.57;;
19804;SDS011;10062;51.052;13.756;2023-04-25T00:04:02;6.43;;;2.80;;
19804;SDS011;10062;51.052;13.756;2023-04-25T00:06:37;4.37;;;2.47;;
19804;SDS011;10062;51.052;13.756;2023-04-25T00:09:09;4.10;;;2.33;;
19804;SDS011;10062;51.052;13.756;2023-04-25T00:11:41;4.50;;;2.90;;
19804;SDS011;10062;51.052;13.756;2023-04-25T00:14:12;4.70;;;3.00;;
19804;SDS011;10062;51.052;13.756;2023-04-25T00:16:45;5.87;;;2.90;;
19804;SDS011;10062;51.052;13.756;2023-04-25T00:19:16;6.93;;;3.20;;
19804;SDS011;10062;51.052;13.756;2023-04-25T00:21:49;4.83;;;2.90;;
19804;SDS011;10062;51.052;13.756;2023-04-25T00:24:21;4.47;;;2.50;;
19804;SDS011;10062;51.052;13.756;2023-04-25T00:26:53;6.00;;;2.97;;
19804;SDS011;10062;51.052;13.756;2023-04-25T00:29:24;4.10;;;2.33;;
19804;SDS011;10062;51.052;13.756;2023-04-25T00:31:56;7.47;;;3.10;;
19804;SDS011;10062;51.052;13.756;2023-04-25T00:34:28;5.13;;;2.90;;
19804;SDS011;10062;51.052;13.756;2023-04-25T00:37:01;6.07;;;2.83;;
19804;SDS011;10062;51.052;13.756;2023-04-25T00:39:33;5.77;;;2.53;;
19804;SDS011;10062;51.052;13.756;2023-04-25T00:42:04;6.00;;;3.20;;
19804;SDS011;10062;51.052;13.756;2023-04-25T00:44:36;6.23;;;2.70;;
19804;SDS011;10062;51.052;13.756;2023-04-25T00:47:08;5.77;;;2.70;;
19804;SDS011;10062;51.052;13.756;2023-04-25T00:49:42;7.60;;;2.80;;
19804;SDS011;10062;51.052;13.756;2023-04-25T00:52:17;4.50;;;2.80;;
19804;SDS011;10062;51.052;13.756;2023-04-25T00:54:48;4.03;;;2.73;;
19804;SDS011;10062;51.052;13.756;2023-04-25T00:57:20;6.30;;;3.17;;
19804;SDS011;10062;51.052;13.756;2023-04-25T00:59:52;5.50;;;3.23;;
19804;SDS011;10062;51.052;13.756;2023-04-25T01:02:25;6.10;;;3.30;;
19804;SDS011;10062;51.052;13.756;2023-04-25T01:04:57;6.40;;;3.37;;
19804;SDS011;10062;51.052;13.756;2023-04-25T01:07:30;7.10;;;3.53;;
19804;SDS011;10062;51.052;13.756;2023-04-25T01:10:02;9.50;;;3.53;;
19804;SDS011;10062;51.052;13.756;2023-04-25T01:12:34;8.80;;;3.67;;
19804;SDS011;10062;51.052;13.756;2023-04-25T01:15:06;8.23;;;3.53;;
19804;SDS011;10062;51.052;13.756;2023-04-25T01:17:38;6.60;;;4.10;;
19804;SDS011;10062;51.052;13.756;2023-04-25T01:20:11;5.80;;;3.83;;
19804;SDS011;10062;51.052;13.756;2023-04-25T01:22:46;7.30;;;3.60;;
19804;SDS011;10062;51.052;13.756;2023-04-25T01:25:18;11.87;;;4.50;;
19804;SDS011;10062;51.052;13.756;2023-04-25T01:27:50;6.97;;;3.60;;
19804;SDS011;10062;51.052;13.756;2023-04-25T01:30:22;5.83;;;3.53;;
19804;SDS011;10062;51.052;13.756;2023-04-25T01:32:55;7.23;;;4.63;;
19804;SDS011;10062;51.052;13.756;2023-04-25T01:35:27;7.23;;;4.03;;
19804;SDS011;10062;51.052;13.756;2023-04-25T01:38:00;7.37;;;4.10;;
19804;SDS011;10062;51.052;13.756;2023-04-25T01:40:32;8.17;;;4.40;;
19804;SDS011;10062;51.052;13.756;2023-04-25T01:43:05;8.63;;;3.70;;
19804;SDS011;10062;51.052;13.756;2023-04-25T01:45:38;8.67;;;3.80;;
19804;SDS011;10062;51.052;13.756;2023-04-25T01:48:13;5.93;;;3.77;;
19804;SDS011;10062;51.052;13.756;2023-04-25T01:50:47;8.97;;;4.37;;
19804;SDS011;10062;51.052;13.756;2023-04-25T01:53:20;9.37;;;4.53;;
19804;SDS011;10062;51.052;13.756;2023-04-25T01:55:52;9.47;;;4.73;;
19804;SDS011;10062;51.052;13.756;2023-04-25T01:58:26;6.57;;;4.10;;
19804;SDS011;10062;51.052;13.756;2023-04-25T02:01:19;5.80;;;4.00;;
19804;SDS011;10062;51.052;13.756;2023-04-25T02:04:05;8.83;;;4.20;;
19804;SDS011;10062;51.052;13.756;2023-04-25T02:06:40;5.90;;;3.33;;
19804;SDS011;10062;51.052;13.756;2023-04-25T02:09:13;8.97;;;3.73;;
19804;SDS011;10062;51.052;13.756;2023-04-25T02:11:50;10.23;;;4.00;;
19804;SDS011;10062;51.052;13.756;2023-04-25T02:14:37;6.40;;;3.97;;
19804;SDS011;10062;51.052;13.756;2023-04-25T02:17:16;9.93;;;4.33;;
19804;SDS011;10062;51.052;13.756;2023-04-25T02:19:49;6.53;;;3.87;;
19804;SDS011;10062;51.052;13.756;2023-04-25T02:22:20;6.03;;;3.77;;
19804;SDS011;10062;51.052;13.756;2023-04-25T02:24:54;8.13;;;4.53;;
19804;SDS011;10062;51.052;13.756;2023-04-25T02:27:26;7.97;;;4.63;;
19804;SDS011;10062;51.052;13.756;2023-04-25T02:29:57;7.93;;;4.33;;
19804;SDS011;10062;51.052;13.756;2023-04-25T02:32:29;7.47;;;4.43;;
19804;SDS011;10062;51.052;13.756;2023-04-25T02:35:01;7.40;;;3.97;;
19804;SDS011;10062;51.052;13.756;2023-04-25T02:37:34;11.90;;;3.80;;
19804;SDS011;10062;51.052;13.756;2023-04-25T02:40:09;9.80;;;4.83;;
19804;SDS011;10062;51.052;13.756;2023-04-25T02:42:41;10.23;;;3.80;;
19804;SDS011;10062;51.052;13.756;2023-04-25T02:45:15;6.23;;;4.03;;
19804;SDS011;10062;51.052;13.756;2023-04-25T02:47:47;5.33;;;3.70;;
19804;SDS011;10062;51.052;13.756;2023-04-25T02:50:18;7.47;;;4.23;;
19804;SDS011;10062;51.052;13.756;2023-04-25T02:52:50;8.33;;;4.07;;
19804;SDS011;10062;51.052;13.756;2023-04-25T02:55:29;9.40;;;4.07;;
19804;SDS011;10062;51.052;13.756;2023-04-25T02:58:04;8.30;;;4.23;;
19804;SDS011;10062;51.052;13.756;2023-04-25T03:00:44;6.77;;;4.00;;
19804;SDS011;10062;51.052;13.756;2023-04-25T03:03:16;9.23;;;3.80;;
19804;SDS011;10062;51.052;13.756;2023-04-25T03:05:48;8.93;;;4.57;;
19804;SDS011;10062;51.052;13.756;2023-04-25T03:08:24;8.93;;;4.73;;
19804;SDS011;10062;51.052;13.756;2023-04-25T03:11:00;8.93;;;4.17;;
19804;SDS011;10062;51.052;13.756;2023-04-25T03:13:33;6.30;;;4.00;;
19804;SDS011;10062;51.052;13.756;2023-04-25T03:16:05;6.67;;;3.60;;
19804;SDS011;10062;51.052;13.756;2023-04-25T03:18:38;7.93;;;4.47;;
19804;SDS011;10062;51.052;13.756;2023-04-25T03:21:09;6.67;;;4.07;;
19804;SDS011;10062;51.052;13.756;2023-04-25T03:23:41;6.67;;;3.87;;
19804;SDS011;10062;51.052;13.756;2023-04-25T03:26:14;8.40;;;4.70;;
19804;SDS011;10062;51.052;13.756;2023-04-25T03:28:46;11.50;;;4.93;;
19804;SDS011;10062;51.052;13.756;2023-04-25T03:31:18;8.17;;;4.57;;
19804;SDS011;10062;51.052;13.756;2023-04-25T03:33:50;9.60;;;4.30;;
19804;SDS011;10062;51.052;13.756;2023-04-25T03:36:25;9.90;;;4.93;;
19804;SDS011;10062;51.052;13.756;2023-04-25T03:38:57;10.93;;;4.87;;
19804;SDS011;10062;51.052;13.756;2023-04-25T03:41:31;8.43;;;4.83;;
19804;SDS011;10062;51.052;13.756;2023-04-25T03:44:08;9.77;;;4.87;;
19804;SDS011;10062;51.052;13.756;2023-04-25T03:46:40;8.83;;;5.57;;
19804;SDS011;10062;51.052;13.756;2023-04-25T03:49:12;6.77;;;4.47;;
19804;SDS011;10062;51.052;13.756;2023-04-25T03:52:02;8.20;;;5.10;;
19804;SDS011;10062;51.052;13.756;2023-04-25T03:54:40;8.63;;;5.07;;
19804;SDS011;10062;51.052;13.756;2023-04-25T03:57:16;8.67;;;4.97;;
19804;SDS011;10062;51.052;13.756;2023-04-25T03:59:48;9.90;;;5.27;;
19804;SDS011;10062;51.052;13.756;2023-04-25T04:02:20;8.03;;;4.87;;
19804;SDS011;10062;51.052;13.756;2023-04-25T04:04:52;9.53;;;5.10;;
19804;SDS011;10062;51.052;13.756;2023-04-25T04:07:26;10.93;;;5.40;;
19804;SDS011;10062;51.052;13.756;2023-04-25T04:10:01;11.60;;;5.73;;
19804;SDS011;10062;51.052;13.756;2023-04-25T04:12:40;9.40;;;5.37;;
19804;SDS011;10062;51.052;13.756;2023-04-25T04:15:12;10.73;;;5.30;;
19804;SDS011;10062;51.052;13.756;2023-04-25T04:17:45;11.00;;;5.93;;
19804;SDS011;10062;51.052;13.756;2023-04-25T04:20:17;11.07;;;6.57;;
19804;SDS011;10062;51.052;13.756;2023-04-25T04:22:50;14.60;;;7.67;;
19804;SDS011;10062;51.052;13.756;2023-04-25T04:25:23;9.00;;;5.33;;
19804;SDS011;10062;51.052;13.756;2023-04-25T04:28:35;10.23;;;5.30;;
19804;SDS011;10062;51.052;13.756;2023-04-25T04:31:20;14.57;;;6.50;;
19804;SDS011;10062;51.052;13.756;2023-04-25T04:33:51;8.37;;;5.63;;
19804;SDS011;10062;51.052;13.756;2023-04-25T04:36:24;9.53;;;5.33;;
19804;SDS011;10062;51.052;13.756;2023-04-25T04:38:56;9.77;;;5.73;;
19804;SDS011;10062;51.052;13.756;2023-04-25T04:41:38;11.03;;;5.57;;
19804;SDS011;10062;51.052;13.756;2023-04-25T04:44:18;9.27;;;5.70;;
19804;SDS011;10062;51.052;13.756;2023-04-25T04:47:10;9.40;;;5.67;;
19804;SDS011;10062;51.052;13.756;2023-04-25T04:50:05;14.80;;;5.97;;
19804;SDS011;10062;51.052;13.756;2023-04-25T04:52:55;9.53;;;5.20;;
19804;SDS011;10062;51.052;13.756;2023-04-25T04:55:40;11.47;;;6.20;;
19804;SDS011;10062;51.052;13.756;2023-04-25T04:58:31;12.47;;;5.60;;
19804;SDS011;10062;51.052;13.756;2023-04-25T05:01:24;8.97;;;4.80;;
19804;SDS011;10062;51.052;13.756;2023-04-25T05:04:03;12.27;;;5.83;;
19804;SDS011;10062;51.052;13.756;2023-04-25T05:06:53;12.03;;;7.10;;
19804;SDS011;10062;51.052;13.756;2023-04-25T05:09:44;13.60;;;6.37;;
19804;SDS011;10062;51.052;13.756;2023-04-25T05:12:36;11.70;;;5.57;;
19804;SDS011;10062;51.052;13.756;2023-04-25T05:15:40;8.97;;;5.20;;
19804;SDS011;10062;51.052;13.756;2023-04-25T05:18:36;11.03;;;6.17;;
19804;SDS011;10062;51.052;13.756;2023-04-25T05:21:12;11.10;;;5.77;;
19804;SDS011;10062;51.052;13.756;2023-04-25T05:23:58;10.93;;;5.93;;
19804;SDS011;10062;51.052;13.756;2023-04-25T05:26:49;9.87;;;5.43;;
19804;SDS011;10062;51.052;13.756;2023-04-25T05:29:47;9.10;;;4.87;;
19804;SDS011;10062;51.052;13.756;2023-04-25T05:32:36;10.43;;;5.03;;
19804;SDS011;10062;51.052;13.756;2023-04-25T05:35:10;7.07;;;4.27;;
19804;SDS011;10062;51.052;13.756;2023-04-25T05:37:47;10.07;;;4.90;;
19804;SDS011;10062;51.052;13.756;2023-04-25T05:40:20;8.87;;;5.40;;
19804;SDS011;10062;51.052;13.756;2023-04-25T05:43:02;12.37;;;5.30;;
19804;SDS011;10062;51.052;13.756;2023-04-25T05:45:53;10.23;;;5.73;;
19804;SDS011;10062;51.052;13.756;2023-04-25T05:48:31;13.00;;;5.37;;
19804;SDS011;10062;51.052;13.756;2023-04-25T05:51:38;16.70;;;5.13;;
19804;SDS011;10062;51.052;13.756;2023-04-25T05:54:21;11.57;;;5.80;;
19804;SDS011;10062;51.052;13.756;2023-04-25T05:56:52;11.97;;;5.50;;
19804;SDS011;10062;51.052;13.756;2023-04-25T05:59:24;10.03;;;5.50;;
19804;SDS011;10062;51.052;13.756;2023-04-25T06:01:56;8.77;;;5.40;;
19804;SDS011;10062;51.052;13.756;2023-04-25T06:04:28;12.30;;;5.30;;
19804;SDS011;10062;51.052;13.756;2023-04-25T06:07:01;11.23;;;5.10;;
19804;SDS011;10062;51.052;13.756;2023-04-25T06:09:33;11.23;;;6.30;;
19804;SDS011;10062;51.052;13.756;2023-04-25T06:12:05;10.20;;;5.90;;
19804;SDS011;10062;51.052;13.756;2023-04-25T06:14:37;9.80;;;5.67;;
19804;SDS011;10062;51.052;13.756;2023-04-25T06:17:09;13.90;;;5.83;;
19804;SDS011;10062;51.052;13.756;2023-04-25T06:19:41;7.53;;;4.13;;
19804;SDS011;10062;51.052;13.756;2023-04-25T06:22:14;9.87;;;4.97;;
19804;SDS011;10062;51.052;13.756;2023-04-25T06:24:46;16.83;;;6.03;;
19804;SDS011;10062;51.052;13.756;2023-04-25T06:27:17;12.67;;;4.97;;
19804;SDS011;10062;51.052;13.756;2023-04-25T06:29:50;13.93;;;6.07;;
19804;SDS011;10062;51.052;13.756;2023-04-25T06:32:21;10.70;;;5.70;;
19804;SDS011;10062;51.052;13.756;2023-04-25T06:34:53;9.20;;;5.27;;
19804;SDS011;10062;51.052;13.756;2023-04-25T06:37:27;8.90;;;5.33;;
19804;SDS011;10062;51.052;13.756;2023-04-25T06:39:59;11.60;;;5.77;;
19804;SDS011;10062;51.052;13.756;2023-04-25T06:42:31;11.00;;;4.93;;
19804;SDS011;10062;51.052;13.756;2023-04-25T06:45:03;9.70;;;5.00;;
19804;SDS011;10062;51.052;13.756;2023-04-25T06:47:36;9.03;;;4.30;;
19804;SDS011;10062;51.052;13.756;2023-04-25T06:50:08;9.43;;;4.87;;
19804;SDS011;10062;51.052;13.756;2023-04-25T06:52:42;10.70;;;4.73;;
19804;SDS011;10062;51.052;13.756;2023-04-25T06:55:14;9.97;;;4.97;;
19804;SDS011;10062;51.052;13.756;2023-04-25T06:58:03;11.90;;;5.43;;
19804;SDS011;10062;51.052;13.756;2023-04-25T07:00:58;8.30;;;5.10;;
19804;SDS011;10062;51.052;13.756;2023-04-25T07:03:31;9.77;;;4.50;;
19804;SDS011;10062;51.052;13.756;2023-04-25T07:06:07;12.47;;;5.00;;
19804;SDS011;10062;51.052;13.756;2023-04-25T07:08:40;8.27;;;4.37;;
19804;SDS011;10062;51.052;13.756;2023-04-25T07:11:12;7.97;;;4.87;;
19804;SDS011;10062;51.052;13.756;2023-04-25T07:13:44;8.90;;;5.00;;
19804;SDS011;10062;51.052;13.756;2023-04-25T07:16:16;9.07;;;4.23;;
19804;SDS011;10062;51.052;13.756;2023-04-25T07:18:48;7.57;;;4.50;;
19804;SDS011;10062;51.052;13.756;2023-04-25T07:21:19;8.23;;;4.07;;
19804;SDS011;10062;51.052;13.756;2023-04-25T07:23:55;11.03;;;4.80;;
19804;SDS011;10062;51.052;13.756;2023-04-25T07:26:32;9.53;;;4.80;;
19804;SDS011;10062;51.052;13.756;2023-04-25T07:29:24;6.27;;;3.80;;
19804;SDS011;10062;51.052;13.756;2023-04-25T07:31:56;6.50;;;4.07;;
19804;SDS011;10062;51.052;13.756;2023-04-25T07:34:27;11.27;;;3.73;;
19804;SDS011;10062;51.052;13.756;2023-04-25T07:37:00;8.57;;;3.90;;
19804;SDS011;10062;51.052;13.756;2023-04-25T07:39:40;7.73;;;4.23;;
19804;SDS011;10062;51.052;13.756;2023-04-25T07:42:12;6.90;;;4.70;;
19804;SDS011;10062;51.052;13.756;2023-04-25T07:44:46;9.97;;;4.40;;
19804;SDS011;10062;51.052;13.756;2023-04-25T07:47:19;9.57;;;4.17;;
19804;SDS011;10062;51.052;13.756;2023-04-25T07:49:51;9.93;;;3.90;;
19804;SDS011;10062;51.052;13.756;2023-04-25T07:52:22;6.33;;;3.50;;
19804;SDS011;10062;51.052;13.756;2023-04-25T07:55:02;7.43;;;3.53;;
19804;SDS011;10062;51.052;13.756;2023-04-25T07:57:45;7.87;;;3.33;;
19804;SDS011;10062;51.052;13.756;2023-04-25T08:00:17;11.00;;;3.63;;
19804;SDS011;10062;51.052;13.756;2023-04-25T08:02:56;5.50;;;2.87;;
19804;SDS011;10062;51.052;13.756;2023-04-25T08:05:27;8.77;;;4.53;;
19804;SDS011;10062;51.052;13.756;2023-04-25T08:08:06;6.60;;;3.00;;
19804;SDS011;10062;51.052;13.756;2023-04-25T08:10:39;7.83;;;3.33;;
19804;SDS011;10062;51.052;13.756;2023-04-25T08:13:11;8.23;;;3.25;;
19804;SDS011;10062;51.052;13.756;2023-04-25T08:15:43;10.50;;;3.30;;
19804;SDS011;10062;51.052;13.756;2023-04-25T08:18:15;7.03;;;2.58;;
19804;SDS011;10062;51.052;13.756;2023-04-25T08:20:47;6.15;;;3.08;;
19804;SDS011;10062;51.052;13.756;2023-04-25T08:23:20;8.50;;;2.65;;
19804;SDS011;10062;51.052;13.756;2023-04-25T08:26:08;8.07;;;3.15;;
19804;SDS011;10062;51.052;13.756;2023-04-25T08:28:45;13.20;;;3.47;;
19804;SDS011;10062;51.052;13.756;2023-04-25T08:31:17;6.93;;;2.93;;
19804;SDS011;10062;51.052;13.756;2023-04-25T08:34:01;6.18;;;2.85;;
19804;SDS011;10062;51.052;13.756;2023-04-25T08:36:44;6.00;;;2.43;;
19804;SDS011;10062;51.052;13.756;2023-04-25T08:39:27;7.43;;;3.47;;
19804;SDS011;10062;51.052;13.756;2023-04-25T08:42:19;4.63;;;2.60;;
19804;SDS011;10062;51.052;13.756;2023-04-25T08:44:52;10.17;;;3.43;;
19804;SDS011;10062;51.052;13.756;2023-04-25T08:47:28;9.07;;;3.40;;
19804;SDS011;10062;51.052;13.756;2023-04-25T08:50:04;11.13;;;3.70;;
19804;SDS011;10062;51.052;13.756;2023-04-25T08:52:37;8.73;;;3.30;;
19804;SDS011;10062;51.052;13.756;2023-04-25T08:55:16;16.00;;;4.00;;
19804;SDS011;10062;51.052;13.756;2023-04-25T08:57:50;7.73;;;3.47;;
19804;SDS011;10062;51.052;13.756;2023-04-25T09:00:22;5.23;;;3.33;;
19804;SDS011;10062;51.052;13.756;2023-04-25T09:02:54;7.00;;;3.60;;
19804;SDS011;10062;51.052;13.756;2023-04-25T09:05:27;7.40;;;3.40;;
19804;SDS011;10062;51.052;13.756;2023-04-25T09:08:00;6.00;;;3.10;;
19804;SDS011;10062;51.052;13.756;2023-04-25T09:10:31;6.70;;;3.67;;
19804;SDS011;10062;51.052;13.756;2023-04-25T09:13:05;10.93;;;4.33;;
19804;SDS011;10062;51.052;13.756;2023-04-25T09:16:03;8.03;;;3.47;;
19804;SDS011;10062;51.052;13.756;2023-04-25T09:18:49;9.23;;;3.63;;
19804;SDS011;10062;51.052;13.756;2023-04-25T09:21:22;10.30;;;3.67;;
19804;SDS011;10062;51.052;13.756;2023-04-25T09:23:54;7.17;;;3.60;;
19804;SDS011;10062;51.052;13.756;2023-04-25T09:26:26;7.03;;;3.40;;
19804;SDS011;10062;51.052;13.756;2023-04-25T09:29:05;11.77;;;4.53;;
19804;SDS011;10062;51.052;13.756;2023-04-25T09:31:39;8.90;;;4.53;;
19804;SDS011;10062;51.052;13.756;2023-04-25T09:34:13;10.53;;;4.03;;
19804;SDS011;10062;51.052;13.756;2023-04-25T09:36:51;11.07;;;3.40;;
19804;SDS011;10062;51.052;13.756;2023-04-25T09:39:46;7.60;;;3.70;;
19804;SDS011;10062;51.052;13.756;2023-04-25T09:42:21;6.27;;;3.47;;
19804;SDS011;10062;51.052;13.756;2023-04-25T09:44:55;6.63;;;3.90;;
19804;SDS011;10062;51.052;13.756;2023-04-25T09:47:28;7.40;;;4.03;;
19804;SDS011;10062;51.052;13.756;2023-04-25T09:50:00;10.07;;;4.20;;
19804;SDS011;10062;51.052;13.756;2023-04-25T09:52:32;7.27;;;4.10;;
19804;SDS011;10062;51.052;13.756;2023-04-25T09:55:19;13.27;;;4.57;;
19804;SDS011;10062;51.052;13.756;2023-04-25T09:57:51;11.80;;;4.77;;
19804;SDS011;10062;51.052;13.756;2023-04-25T10:00:26;7.00;;;4.20;;
19804;SDS011;10062;51.052;13.756;2023-04-25T10:02:59;12.13;;;4.83;;
19804;SDS011;10062;51.052;13.756;2023-04-25T10:06:00;12.37;;;4.77;;
19804;SDS011;10062;51.052;13.756;2023-04-25T10:08:34;13.07;;;5.67;;
19804;SDS011;10062;51.052;13.756;2023-04-25T10:11:08;12.80;;;5.47;;
19804;SDS011;10062;51.052;13.756;2023-04-25T10:13:40;17.40;;;4.70;;
19804;SDS011;10062;51.052;13.756;2023-04-25T10:16:15;9.63;;;4.00;;
19804;SDS011;10062;51.052;13.756;2023-04-25T10:18:47;10.03;;;3.83;;
19804;SDS011;10062;51.052;13.756;2023-04-25T10:21:19;8.83;;;4.10;;
19804;SDS011;10062;51.052;13.756;2023-04-25T10:23:52;11.13;;;4.27;;
19804;SDS011;10062;51.052;13.756;2023-04-25T10:26:25;5.93;;;3.50;;
19804;SDS011;10062;51.052;13.756;2023-04-25T10:28:58;7.53;;;4.10;;
19804;SDS011;10062;51.052;13.756;2023-04-25T10:31:32;6.67;;;3.97;;
19804;SDS011;10062;51.052;13.756;2023-04-25T10:34:04;9.27;;;5.03;;
19804;SDS011;10062;51.052;13.756;2023-04-25T10:36:36;9.97;;;4.20;;
19804;SDS011;10062;51.052;13.756;2023-04-25T10:39:08;6.43;;;3.60;;
19804;SDS011;10062;51.052;13.756;2023-04-25T10:41:46;6.67;;;3.87;;
19804;SDS011;10062;51.052;13.756;2023-04-25T10:44:26;9.90;;;4.53;;
19804;SDS011;10062;51.052;13.756;2023-04-25T10:47:00;10.63;;;4.57;;
19804;SDS011;10062;51.052;13.756;2023-04-25T10:49:33;8.67;;;4.33;;
19804;SDS011;10062;51.052;13.756;2023-04-25T10:52:13;8.07;;;4.20;;
19804;SDS011;10062;51.052;13.756;2023-04-25T10:54:47;9.70;;;4.77;;
19804;SDS011;10062;51.052;13.756;2023-04-25T10:57:30;12.43;;;5.20;;
19804;SDS011;10062;51.052;13.756;2023-04-25T11:00:10;5.73;;;3.90;;
19804;SDS011;10062;51.052;13.756;2023-04-25T11:02:46;8.90;;;4.43;;
19804;SDS011;10062;51.052;13.756;2023-04-25T11:05:20;6.27;;;4.27;;
19804;SDS011;10062;51.052;13.756;2023-04-25T11:07:54;10.50;;;4.17;;
19804;SDS011;10062;51.052;13.756;2023-04-25T11:10:27;11.67;;;6.17;;
19804;SDS011;10062;51.052;13.756;2023-04-25T11:13:00;12.97;;;6.23;;
19804;SDS011;10062;51.052;13.756;2023-04-25T11:15:32;11.93;;;5.40;;
19804;SDS011;10062;51.052;13.756;2023-04-25T11:18:05;9.90;;;3.77;;
19804;SDS011;10062;51.052;13.756;2023-04-25T11:20:36;9.10;;;4.60;;
19804;SDS011;10062;51.052;13.756;2023-04-25T11:23:08;9.47;;;4.93;;
19804;SDS011;10062;51.052;13.756;2023-04-25T11:25:40;14.43;;;4.57;;
19804;SDS011;10062;51.052;13.756;2023-04-25T11:28:12;11.70;;;4.67;;
19804;SDS011;10062;51.052;13.756;2023-04-25T11:30:47;6.80;;;2.90;;
19804;SDS011;10062;51.052;13.756;2023-04-25T11:33:23;12.47;;;4.03;;
19804;SDS011;10062;51.052;13.756;2023-04-25T11:35:57;7.03;;;3.50;;
19804;SDS011;10062;51.052;13.756;2023-04-25T11:38:29;7.43;;;3.33;;
19804;SDS011;10062;51.052;13.756;2023-04-25T11:41:01;10.97;;;3.47;;
19804;SDS011;10062;51.052;13.756;2023-04-25T11:43:33;9.30;;;2.53;;
19804;SDS011;10062;51.052;13.756;2023-04-25T11:46:06;5.40;;;2.90;;
19804;SDS011;10062;51.052;13.756;2023-04-25T11:48:39;8.30;;;2.60;;
19804;SDS011;10062;51.052;13.756;2023-04-25T11:51:12;10.63;;;2.50;;
19804;SDS011;10062;51.052;13.756;2023-04-25T11:53:44;21.00;;;3.53;;
19804;SDS011;10062;51.052;13.756;2023-04-25T11:56:16;6.93;;;2.67;;
19804;SDS011;10062;51.052;13.756;2023-04-25T11:58:55;4.83;;;2.20;;
19804;SDS011;10062;51.052;13.756;2023-04-25T12:01:28;4.77;;;1.60;;
19804;SDS011;10062;51.052;13.756;2023-04-25T12:04:11;9.87;;;2.60;;
19804;SDS011;10062;51.052;13.756;2023-04-25T12:06:44;9.17;;;2.40;;
19804;SDS011;10062;51.052;13.756;2023-04-25T12:09:18;6.43;;;2.57;;
19804;SDS011;10062;51.052;13.756;2023-04-25T12:11:52;12.27;;;2.50;;
19804;SDS011;10062;51.052;13.756;2023-04-25T12:14:26;6.33;;;2.57;;
19804;SDS011;10062;51.052;13.756;2023-04-25T12:16:59;13.80;;;2.57;;
19804;SDS011;10062;51.052;13.756;2023-04-25T12:19:33;9.03;;;2.77;;
19804;SDS011;10062;51.052;13.756;2023-04-25T12:22:19;4.40;;;1.93;;
19804;SDS011;10062;51.052;13.756;2023-04-25T12:24:51;6.87;;;2.53;;
19804;SDS011;10062;51.052;13.756;2023-04-25T12:27:25;10.30;;;2.67;;
19804;SDS011;10062;51.052;13.756;2023-04-25T12:29:57;9.67;;;2.70;;
19804;SDS011;10062;51.052;13.756;2023-04-25T12:32:29;9.20;;;2.63;;
19804;SDS011;10062;51.052;13.756;2023-04-25T12:35:03;14.50;;;4.23;;
19804;SDS011;10062;51.052;13.756;2023-04-25T12:37:35;17.77;;;4.43;;
19804;SDS011;10062;51.052;13.756;2023-04-25T12:40:07;16.17;;;4.97;;
19804;SDS011;10062;51.052;13.756;2023-04-25T12:42:39;9.97;;;3.23;;
19804;SDS011;10062;51.052;13.756;2023-04-25T12:45:12;11.60;;;3.40;;
19804;SDS011;10062;51.052;13.756;2023-04-25T12:47:43;8.47;;;2.83;;
19804;SDS011;10062;51.052;13.756;2023-04-25T12:50:17;11.50;;;3.10;;
19804;SDS011;10062;51.052;13.756;2023-04-25T12:52:48;7.83;;;2.97;;
19804;SDS011;10062;51.052;13.756;2023-04-25T12:55:20;14.30;;;3.77;;
19804;SDS011;10062;51.052;13.756;2023-04-25T12:57:52;14.23;;;4.70;;
19804;SDS011;10062;51.052;13.756;2023-04-25T13:00:23;13.70;;;3.93;;
19804;SDS011;10062;51.052;13.756;2023-04-25T13:02:56;12.43;;;3.90;;
19804;SDS011;10062;51.052;13.756;2023-04-25T13:05:29;15.73;;;3.73;;
19804;SDS011;10062;51.052;13.756;2023-04-25T13:08:01;14.77;;;4.23;;
19804;SDS011;10062;51.052;13.756;2023-04-25T13:10:33;14.50;;;4.07;;
19804;SDS011;10062;51.052;13.756;2023-04-25T13:13:05;18.00;;;4.80;;
19804;SDS011;10062;51.052;13.756;2023-04-25T13:15:38;16.03;;;3.70;;
19804;SDS011;10062;51.052;13.756;2023-04-25T13:18:10;16.07;;;4.70;;
19804;SDS011;10062;51.052;13.756;2023-04-25T13:20:43;14.37;;;3.90;;
19804;SDS011;10062;51.052;13.756;2023-04-25T13:23:16;14.43;;;4.97;;
19804;SDS011;10062;51.052;13.756;2023-04-25T13:25:47;12.83;;;4.13;;
19804;SDS011;10062;51.052;13.756;2023-04-25T13:28:19;12.90;;;5.13;;
19804;SDS011;10062;51.052;13.756;2023-04-25T13:30:51;15.13;;;4.70;;
19804;SDS011;10062;51.052;13.756;2023-04-25T13:33:23;19.37;;;4.83;;
19804;SDS011;10062;51.052;13.756;2023-04-25T13:35:57;21.40;;;4.70;;
19804;SDS011;10062;51.052;13.756;2023-04-25T13:38:28;14.93;;;4.90;;
19804;SDS011;10062;51.052;13.756;2023-04-25T13:41:00;15.43;;;5.07;;
19804;SDS011;10062;51.052;13.756;2023-04-25T13:43:33;10.43;;;3.53;;
19804;SDS011;10062;51.052;13.756;2023-04-25T13:46:05;13.40;;;4.20;;
19804;SDS011;10062;51.052;13.756;2023-04-25T13:48:36;11.50;;;3.70;;
19804;SDS011;10062;51.052;13.756;2023-04-25T13:51:09;17.27;;;4.73;;
19804;SDS011;10062;51.052;13.756;2023-04-25T13:53:41;11.03;;;3.67;;
19804;SDS011;10062;51.052;13.756;2023-04-25T13:56:12;15.10;;;3.97;;
19804;SDS011;10062;51.052;13.756;2023-04-25T13:58:44;8.57;;;3.37;;
19804;SDS011;10062;51.052;13.756;2023-04-25T14:01:16;8.73;;;3.77;;
19804;SDS011;10062;51.052;13.756;2023-04-25T14:03:48;16.50;;;4.10;;
19804;SDS011;10062;51.052;13.756;2023-04-25T14:06:21;16.30;;;4.60;;
19804;SDS011;10062;51.052;13.756;2023-04-25T14:08:54;13.30;;;4.20;;
19804;SDS011;10062;51.052;13.756;2023-04-25T14:11:25;15.50;;;3.93;;
19804;SDS011;10062;51.052;13.756;2023-04-25T14:13:57;6.97;;;3.20;;
19804;SDS011;10062;51.052;13.756;2023-04-25T14:16:29;13.57;;;4.00;;
19804;SDS011;10062;51.052;13.756;2023-04-25T14:19:01;11.07;;;3.73;;
19804;SDS011;10062;51.052;13.756;2023-04-25T14:21:34;10.53;;;3.37;;
19804;SDS011;10062;51.052;13.756;2023-04-25T14:24:06;10.60;;;3.33;;
19804;SDS011;10062;51.052;13.756;2023-04-25T14:26:39;10.87;;;3.40;;
19804;SDS011;10062;51.052;13.756;2023-04-25T14:29:10;10.93;;;3.40;;
19804;SDS011;10062;51.052;13.756;2023-04-25T14:31:42;15.03;;;3.73;;
19804;SDS011;10062;51.052;13.756;2023-04-25T14:34:15;11.33;;;4.07;;
19804;SDS011;10062;51.052;13.756;2023-04-25T14:36:47;13.97;;;4.23;;
19804;SDS011;10062;51.052;13.756;2023-04-25T14:39:19;14.67;;;4.30;;
19804;SDS011;10062;51.052;13.756;2023-04-25T14:41:51;11.40;;;3.70;;
19804;SDS011;10062;51.052;13.756;2023-04-25T14:44:23;9.37;;;3.53;;
19804;SDS011;10062;51.052;13.756;2023-04-25T14:46:55;10.60;;;3.33;;
19804;SDS011;10062;51.052;13.756;2023-04-25T14:49:26;14.47;;;4.07;;
19804;SDS011;10062;51.052;13.756;2023-04-25T14:52:00;11.80;;;3.83;;
19804;SDS011;10062;51.052;13.756;2023-04-25T14:54:32;9.83;;;3.73;;
19804;SDS011;10062;51.052;13.756;2023-04-25T14:57:03;14.30;;;4.60;;
19804;SDS011;10062;51.052;13.756;2023-04-25T14:59:35;13.70;;;5.00;;
19804;SDS011;10062;51.052;13.756;2023-04-25T15:02:07;7.23;;;3.10;;
19804;SDS011;10062;51.052;13.756;2023-04-25T15:04:39;16.13;;;4.20;;
19804;SDS011;10062;51.052;13.756;2023-04-25T15:07:12;18.00;;;4.63;;
19804;SDS011;10062;51.052;13.756;2023-04-25T15:09:47;11.53;;;4.00;;
19804;SDS011;10062;51.052;13.756;2023-04-25T15:12:19;16.83;;;3.77;;
19804;SDS011;10062;51.052;13.756;2023-04-25T15:14:51;18.73;;;7.47;;